Time;durP1;ratioP1;P1;durP2;ratioP2;P2;SDS_P1;SDS_P2;PMS_P1;PMS_P2;Temp;Humidity;BMP_temperature;BMP_pressure;BME280_temperature;BME280_humidity;BME280_pressure;Samples;Min_cycle;Max_cycle;Signal;HPM_P1;HPM_P2
2023/07/09 00:00:06;;;;;;;12.25;7.57;;;;;;;19.25;100.00;101588.41;1045140;28;20390;-45
2023/07/09 00:00:40;;;;;;;9.25;8.10;;;;;;;19.10;100.00;101588.25;1045839;28;20520;-46
2023/07/09 00:01:17;;;;;;;8.20;7.40;;;;;;;18.95;100.00;101583.53;1047552;28;20044;-46
2023/07/09 00:01:49;;;;;;;9.00;7.95;;;;;;;19.00;100.00;101580.06;1047688;28;20051;-45
2023/07/09 00:02:23;;;;;;;9.32;7.30;;;;;;;19.00;100.00;101580.06;1047859;28;20040;-46
2023/07/09 00:02:54;;;;;;;9.00;7.30;;;;;;;19.17;100.00;101580.75;1045858;28;20041;-45
2023/07/09 00:03:26;;;;;;;7.18;6.47;;;;;;;19.21;100.00;101590.00;1047980;28;20486;-47
2023/07/09 00:03:57;;;;;;;8.13;7.30;;;;;;;18.88;100.00;101585.56;1047938;28;20102;-46
2023/07/09 00:04:29;;;;;;;11.50;7.63;;;;;;;19.00;100.00;101588.16;1047548;28;20105;-46
2023/07/09 00:05:01;;;;;;;7.22;6.45;;;;;;;19.06;100.00;101584.44;1048053;28;20063;-46
2023/07/09 00:05:32;;;;;;;7.32;6.43;;;;;;;19.24;100.00;101591.38;1047968;28;20536;-45
2023/07/09 00:06:04;;;;;;;9.13;6.75;;;;;;;18.93;100.00;101590.25;1047634;28;20040;-46
2023/07/09 00:06:37;;;;;;;8.25;7.40;;;;;;;18.86;100.00;101584.19;1047503;28;20405;-45
2023/07/09 00:07:19;;;;;;;12.85;7.55;;;;;;;18.69;100.00;101590.50;1047647;28;20044;-47
2023/07/09 00:07:51;;;;;;;8.68;7.00;;;;;;;19.15;100.00;101585.59;1047640;28;20047;-48
2023/07/09 00:08:29;;;;;;;9.52;7.65;;;;;;;19.07;100.00;101586.88;1047924;28;20041;-45
2023/07/09 00:09:00;;;;;;;14.43;8.43;;;;;;;19.01;100.00;101581.69;1047971;28;20048;-45
2023/07/09 00:09:32;;;;;;;8.35;6.45;;;;;;;18.93;100.00;101590.25;1051792;28;20048;-45
2023/07/09 00:10:18;;;;;;;9.85;7.63;;;;;;;18.83;100.00;101586.34;1049607;28;20336;-45
2023/07/09 00:10:50;;;;;;;14.90;7.22;;;;;;;18.69;100.00;101590.50;1048209;28;20037;-46
2023/07/09 00:11:22;;;;;;;10.23;7.22;;;;;;;18.81;100.00;101587.66;1047438;28;20398;-47
2023/07/09 00:11:53;;;;;;;8.90;7.10;;;;;;;18.88;100.00;101592.84;1048058;28;20054;-46
2023/07/09 00:12:25;;;;;;;9.38;6.53;;;;;;;19.01;100.00;101587.09;1048262;28;20383;-48
2023/07/09 00:12:57;;;;;;;10.85;8.02;;;;;;;19.09;100.00;101589.31;1047338;28;20123;-48
2023/07/09 00:13:29;;;;;;;9.32;7.55;;;;;;;19.11;100.00;101589.88;1048077;28;20489;-45
2023/07/09 00:14:00;;;;;;;10.63;7.65;;;;;;;19.10;100.00;101589.06;1047915;28;20162;-47
2023/07/09 00:14:32;;;;;;;9.57;6.70;;;;;;;18.96;100.00;101578.94;1047583;28;20037;-49
2023/07/09 00:15:04;;;;;;;8.00;7.05;;;;;;;18.96;100.00;101595.13;1047741;28;20048;-45
2023/07/09 00:15:36;;;;;;;12.32;8.15;;;;;;;18.86;100.00;101584.19;1047746;28;20040;-46
2023/07/09 00:16:14;;;;;;;12.75;7.93;;;;;;;18.88;100.00;101587.47;1047781;28;20041;-44
2023/07/09 00:16:49;;;;;;;8.25;6.60;;;;;;;18.82;100.00;101587.41;1047716;28;20040;-46
2023/07/09 00:17:33;;;;;;;10.55;7.68;;;;;;;18.80;100.00;101592.25;1047554;28;20068;-46
2023/07/09 00:18:06;;;;;;;7.50;6.55;;;;;;;18.71;100.00;101595.66;1046897;28;20162;-45
2023/07/09 00:18:37;;;;;;;9.00;7.53;;;;;;;18.56;100.00;101588.16;1047992;28;20048;-50
2023/07/09 00:19:15;;;;;;;8.55;6.88;;;;;;;18.68;100.00;101599.69;1047674;28;20049;-43
2023/07/09 00:19:47;;;;;;;8.93;7.95;;;;;;;18.47;100.00;101589.66;1048183;28;20036;-48
2023/07/09 00:20:19;;;;;;;7.53;6.60;;;;;;;18.52;100.00;101592.41;1048904;28;20040;-46
2023/07/09 00:20:50;;;;;;;8.73;7.07;;;;;;;18.49;100.00;101584.81;1047886;28;20055;-46
2023/07/09 00:21:22;;;;;;;8.65;7.45;;;;;;;18.73;100.00;101591.63;1048325;28;20040;-47
2023/07/09 00:21:55;;;;;;;9.02;7.15;;;;;;;18.84;100.00;101593.38;1047879;28;20040;-46
2023/07/09 00:22:27;;;;;;;8.35;7.15;;;;;;;18.86;100.00;101586.91;1047502;28;20105;-47
2023/07/09 00:22:59;;;;;;;7.30;6.60;;;;;;;18.76;100.00;101591.13;1048067;28;20032;-45
2023/07/09 00:23:30;;;;;;;7.00;6.30;;;;;;;18.72;100.00;101595.41;1047815;28;20040;-50
2023/07/09 00:24:04;;;;;;;8.73;7.75;;;;;;;18.75;100.00;101589.50;1047839;28;20056;-49
2023/07/09 00:24:36;;;;;;;11.57;7.65;;;;;;;18.61;100.00;101590.91;1048827;28;20055;-48
2023/07/09 00:25:13;;;;;;;11.52;7.57;;;;;;;18.53;100.00;101583.25;1046236;28;20059;-39
2023/07/09 00:25:45;;;;;;;11.35;8.63;;;;;;;18.37;100.00;101579.56;1047994;28;20041;-42
2023/07/09 00:26:23;;;;;;;8.18;7.22;;;;;;;18.54;100.00;101590.28;1048752;28;20059;-40
2023/07/09 00:26:55;;;;;;;9.93;6.85;;;;;;;18.75;100.00;101588.69;1043774;28;20037;-39
2023/07/09 00:27:28;;;;;;;8.55;7.70;;;;;;;18.64;100.00;101587.75;1044512;28;20044;-39
2023/07/09 00:28:00;;;;;;;8.13;7.32;;;;;;;18.43;100.00;101585.84;1043466;28;20056;-39
2023/07/09 00:28:32;;;;;;;9.77;7.55;;;;;;;18.51;100.00;101586.19;1045010;28;20461;-39
2023/07/09 00:29:05;;;;;;;8.88;7.10;;;;;;;18.48;100.00;101583.19;1048034;28;20041;-40
2023/07/09 00:29:36;;;;;;;7.70;6.93;;;;;;;18.35;100.00;101591.63;1047553;28;20059;-39
2023/07/09 00:30:15;;;;;;;7.68;6.13;;;;;;;18.44;100.00;101582.88;1047466;28;20040;-39
2023/07/09 00:30:47;;;;;;;8.27;7.25;;;;;;;18.46;100.00;101591.53;1043659;28;20043;-39
2023/07/09 00:31:19;;;;;;;7.50;6.80;;;;;;;18.50;100.00;101591.84;1044732;28;20063;-39
2023/07/09 00:31:51;;;;;;;9.30;7.57;;;;;;;18.46;100.00;101588.03;1047741;28;20546;-39
2023/07/09 00:32:24;;;;;;;7.75;7.03;;;;;;;18.45;100.00;101589.91;1047250;28;20037;-39
2023/07/09 00:32:56;;;;;;;7.63;6.70;;;;;;;18.29;100.00;101600.72;1047208;28;20040;-39
2023/07/09 00:33:31;;;;;;;8.30;7.05;;;;;;;18.35;100.00;101600.56;1047599;28;20133;-40
2023/07/09 00:34:03;;;;;;;7.35;6.55;;;;;;;18.43;100.00;101592.03;1047892;28;20131;-39
2023/07/09 00:34:34;;;;;;;10.45;7.45;;;;;;;18.30;100.00;101587.00;1047510;28;20048;-39
2023/07/09 00:35:07;;;;;;;8.35;6.90;;;;;;;18.49;100.00;101591.03;1047743;28;20054;-40
2023/07/09 00:35:40;;;;;;;10.25;7.85;;;;;;;18.60;100.00;101596.56;1047670;28;20040;-39
2023/07/09 00:36:25;;;;;;;10.20;7.22;;;;;;;18.49;100.00;101590.22;1048014;28;20051;-39
2023/07/09 00:36:57;;;;;;;8.25;7.45;;;;;;;18.57;100.00;101599.75;1045956;28;20041;-40
2023/07/09 00:37:29;;;;;;;16.85;7.72;;;;;;;18.76;100.00;101590.31;1048758;28;20044;-45
2023/07/09 00:38:00;;;;;;;10.07;7.28;;;;;;;18.80;100.00;101592.25;1048046;28;20483;-46
2023/07/09 00:38:38;;;;;;;11.32;7.32;;;;;;;18.87;100.00;101596.63;1048290;28;20044;-51
2023/07/09 00:39:17;;;;;;;10.70;7.15;;;;;;;18.90;100.00;101590.72;1047760;28;20037;-45
2023/07/09 00:39:49;;;;;;;10.00;7.35;;;;;;;18.95;100.00;101593.50;1046932;28;20632;-45
2023/07/09 00:40:22;;;;;;;9.52;6.68;;;;;;;18.81;100.00;101593.88;1047667;28;20041;-46
2023/07/09 00:41:03;;;;;;;9.20;7.57;;;;;;;18.65;100.00;101592.09;1047559;28;20040;-46
2023/07/09 00:41:37;;;;;;;11.38;8.50;;;;;;;18.74;100.00;101592.44;1047281;28;20079;-46
2023/07/09 00:42:17;;;;;;;10.85;7.75;;;;;;;18.51;100.00;101588.09;1043366;28;20051;-46
2023/07/09 00:42:52;;;;;;;9.50;7.68;;;;;;;18.63;100.00;101588.81;1042742;28;20095;-47
2023/07/09 00:43:24;;;;;;;11.93;7.88;;;;;;;18.63;100.00;101591.53;1045781;28;20095;-45
2023/07/09 00:43:56;;;;;;;9.07;7.05;;;;;;;18.59;100.00;101587.63;1045969;28;20565;-45
2023/07/09 00:44:33;;;;;;;9.90;7.72;;;;;;;18.69;100.00;101587.81;1047145;28;20051;-45
2023/07/09 00:45:20;;;;;;;12.38;8.00;;;;;;;18.41;100.00;101583.38;1047287;28;20521;-50
2023/07/09 00:46:27;;;;;;;9.82;7.75;;;;;;;18.63;100.00;101586.13;1046978;28;20093;-47
2023/07/09 00:47:01;;;;;;;14.07;8.38;;;;;;;18.85;100.00;101586.09;1038445;28;20041;-45
2023/07/09 00:47:51;;;;;;;13.75;7.10;;;;;;;18.73;100.00;101580.84;1040542;28;20045;-45
2023/07/09 00:48:23;;;;;;;12.10;7.93;;;;;;;18.67;100.00;101586.44;1037645;28;20464;-45
2023/07/09 00:49:05;;;;;;;11.48;7.57;;;;;;;18.87;100.00;101588.53;1034938;28;20053;-45
2023/07/09 00:49:46;;;;;;;6.97;6.18;;;;;;;18.95;100.00;101588.09;1034402;28;20604;-47
2023/07/09 00:50:34;;;;;;;8.93;7.68;;;;;;;18.99;100.00;101584.63;1038262;28;20041;-45
2023/07/09 00:51:14;;;;;;;10.32;7.47;;;;;;;18.95;100.00;101590.81;1039388;28;20072;-46
2023/07/09 00:51:46;;;;;;;8.85;7.93;;;;;;;18.77;100.00;101597.34;1039570;28;20487;-45
2023/07/09 00:52:25;;;;;;;15.77;7.32;;;;;;;18.56;100.00;101590.84;1039267;28;20128;-48
2023/07/09 00:53:07;;;;;;;8.63;7.20;;;;;;;18.73;100.00;101586.22;1037772;28;20120;-45
2023/07/09 00:53:45;;;;;;;9.07;7.63;;;;;;;18.37;100.00;101586.84;1045721;28;20048;-39
2023/07/09 00:54:32;;;;;;;8.38;6.78;;;;;;;18.61;100.00;101590.09;1043335;28;20175;-42
2023/07/09 00:55:09;;;;;;;7.43;6.63;;;;;;;18.84;100.00;101593.38;1042065;28;20456;-40
2023/07/09 00:55:43;;;;;;;10.00;6.50;;;;;;;18.93;100.00;101584.84;1043759;28;20044;-39
2023/07/09 00:56:25;;;;;;;12.52;6.70;;;;;;;18.65;100.00;101594.78;1041436;28;20049;-39
2023/07/09 00:57:06;;;;;;;9.00;7.03;;;;;;;18.67;100.00;101587.25;1042442;28;20075;-40
2023/07/09 00:57:38;;;;;;;9.35;7.10;;;;;;;18.76;100.00;101585.72;1043213;28;20049;-40
2023/07/09 00:58:15;;;;;;;10.88;7.60;;;;;;;18.66;100.00;101585.63;1038683;28;20058;-39
2023/07/09 00:58:48;;;;;;;8.77;6.45;;;;;;;18.59;100.00;101587.63;1041616;28;20046;-40
2023/07/09 00:59:22;;;;;;;8.52;6.30;;;;;;;18.61;100.00;101588.19;1043056;28;20048;-39
2023/07/09 00:59:59;;;;;;;11.20;7.10;;;;;;;18.79;100.00;101592.50;1040916;28;20099;-39
2023/07/09 01:00:42;;;;;;;7.85;6.82;;;;;;;18.59;100.00;101590.34;1045455;28;20108;-40
2023/07/09 01:01:18;;;;;;;7.47;6.78;;;;;;;18.56;100.00;101582.75;1044255;28;20037;-39
2023/07/09 01:01:50;;;;;;;11.32;7.07;;;;;;;18.61;100.00;101587.38;1047092;28;20047;-39
2023/07/09 01:02:23;;;;;;;9.90;6.78;;;;;;;18.65;100.00;101593.97;1043883;28;20044;-41
2023/07/09 01:02:57;;;;;;;7.78;6.97;;;;;;;18.55;100.00;101589.22;1042377;28;20049;-40
2023/07/09 01:03:36;;;;;;;8.85;7.28;;;;;;;18.54;100.00;101587.56;1044540;28;20120;-39
2023/07/09 01:04:09;;;;;;;8.27;6.78;;;;;;;18.48;100.00;101585.88;1041565;28;20053;-39
2023/07/09 01:04:41;;;;;;;9.60;8.20;;;;;;;18.42;100.00;101584.19;1046478;28;20171;-40
2023/07/09 01:05:14;;;;;;;9.63;7.22;;;;;;;18.51;100.00;101585.38;1048279;28;20434;-39
2023/07/09 01:05:51;;;;;;;11.15;8.60;;;;;;;18.38;100.00;101588.47;1048806;28;20032;-39
2023/07/09 01:06:32;;;;;;;7.72;6.93;;;;;;;18.29;100.00;101592.63;1047808;28;20072;-39
2023/07/09 01:07:04;;;;;;;11.52;7.75;;;;;;;18.33;100.00;101580.28;1045263;28;20041;-39
2023/07/09 01:07:35;;;;;;;9.70;7.93;;;;;;;18.33;100.00;101588.38;1048573;28;20048;-39
2023/07/09 01:08:09;;;;;;;8.07;7.10;;;;;;;18.30;100.00;101586.19;1048407;28;20041;-39
2023/07/09 01:08:41;;;;;;;10.40;6.47;;;;;;;18.34;100.00;101584.63;1044801;28;20041;-39
2023/07/09 01:09:13;;;;;;;9.23;7.35;;;;;;;18.11;100.00;101589.19;1048568;28;20040;-39
2023/07/09 01:09:45;;;;;;;8.52;7.00;;;;;;;18.10;100.00;101582.16;1048294;28;20133;-39
2023/07/09 01:10:18;;;;;;;8.77;7.57;;;;;;;18.07;100.00;101585.31;1044584;28;20072;-39
2023/07/09 01:10:50;;;;;;;9.27;7.18;;;;;;;18.14;100.00;101593.25;1044376;28;20130;-39
2023/07/09 01:11:22;;;;;;;8.40;7.55;;;;;;;18.09;100.00;101583.22;1040114;28;20055;-39
2023/07/09 01:11:56;;;;;;;8.45;7.55;;;;;;;18.02;100.00;101579.03;1040702;28;20046;-39
2023/07/09 01:12:30;;;;;;;10.13;7.43;;;;;;;17.71;100.00;101588.56;1045412;28;20033;-40
2023/07/09 01:13:02;;;;;;;10.82;6.28;;;;;;;17.69;100.00;101585.28;1041208;28;20093;-39
2023/07/09 01:13:35;;;;;;;8.77;7.72;;;;;;;17.71;100.00;101586.66;1043774;28;20045;-39
2023/07/09 01:14:09;;;;;;;10.50;6.60;;;;;;;17.68;100.00;101586.34;1043913;28;20045;-39
2023/07/09 01:14:41;;;;;;;8.32;6.50;;;;;;;17.69;100.00;101588.78;1042087;28;20041;-39
2023/07/09 01:15:15;;;;;;;10.05;8.20;;;;;;;17.58;100.00;101593.19;1044314;28;20484;-39
2023/07/09 01:15:47;;;;;;;8.73;7.10;;;;;;;17.91;100.00;101594.25;1044103;28;20041;-39
2023/07/09 01:16:23;;;;;;;8.02;7.13;;;;;;;17.74;100.00;101594.25;1041257;28;20546;-39
2023/07/09 01:16:59;;;;;;;7.00;6.13;;;;;;;17.71;100.00;101593.94;1042279;28;20050;-46
2023/07/09 01:17:31;;;;;;;7.97;7.18;;;;;;;17.88;100.00;101600.16;1044333;28;20053;-44
2023/07/09 01:18:03;;;;;;;7.53;6.45;;;;;;;17.90;100.00;101592.63;1040656;28;20057;-45
2023/07/09 01:18:36;;;;;;;8.73;6.47;;;;;;;17.83;100.00;101597.38;1046020;28;20044;-45
2023/07/09 01:19:09;;;;;;;8.82;6.93;;;;;;;17.80;100.00;101600.53;1044021;28;20049;-45
2023/07/09 01:19:43;;;;;;;8.20;7.13;;;;;;;17.74;100.00;101604.22;1045629;28;20040;-45
2023/07/09 01:20:20;;;;;;;9.40;7.15;;;;;;;17.73;100.00;101602.59;1048017;28;20525;-44
2023/07/09 01:21:09;;;;;;;12.52;7.20;;;;;;;17.76;100.00;101602.91;1044047;28;20041;-45
2023/07/09 01:21:40;;;;;;;11.52;7.90;;;;;;;17.74;100.00;101605.03;1044179;28;20059;-46
2023/07/09 01:22:15;;;;;;;9.75;6.75;;;;;;;17.63;100.00;101597.00;1043469;28;20060;-44
2023/07/09 01:22:50;;;;;;;12.15;8.05;;;;;;;17.69;100.00;101604.16;1046269;28;20056;-46
2023/07/09 01:23:22;;;;;;;10.00;7.30;;;;;;;17.83;100.00;101602.78;1048352;28;20167;-49
2023/07/09 01:23:54;;;;;;;9.50;7.78;;;;;;;17.80;100.00;101606.75;1047791;28;20074;-46
2023/07/09 01:24:48;;;;;;;9.70;6.78;;;;;;;17.88;100.00;101602.84;1048947;28;20049;-45
2023/07/09 01:25:19;;;;;;;7.50;6.75;;;;;;;17.79;100.00;101604.31;1048264;28;20045;-45
2023/07/09 01:25:54;;;;;;;8.65;6.88;;;;;;;17.97;100.00;101605.94;1048554;28;20375;-45
2023/07/09 01:26:27;;;;;;;9.48;7.72;;;;;;;17.88;100.00;101598.28;1048639;28;20552;-45
2023/07/09 01:27:01;;;;;;;12.25;7.78;;;;;;;17.87;100.00;101604.72;1048866;28;20040;-45
2023/07/09 01:27:39;;;;;;;8.38;6.78;;;;;;;17.94;100.00;101609.94;1048696;28;20041;-46
2023/07/09 01:28:10;;;;;;;10.50;7.68;;;;;;;17.93;100.00;101608.31;1048434;28;20433;-46
2023/07/09 01:28:43;;;;;;;10.30;7.45;;;;;;;17.97;100.00;101608.63;1048761;28;20040;-39
2023/07/09 01:29:15;;;;;;;7.82;7.03;;;;;;;18.00;100.00;101603.56;1048590;28;20498;-42
2023/07/09 01:29:49;;;;;;;9.38;7.35;;;;;;;17.94;100.00;101599.16;1048269;28;20040;-39
2023/07/09 01:30:28;;;;;;;7.43;6.50;;;;;;;17.91;100.00;101611.25;1048422;28;20210;-39
2023/07/09 01:31:02;;;;;;;11.45;8.30;;;;;;;18.02;100.00;101604.13;1043926;28;20045;-39
2023/07/09 01:31:35;;;;;;;8.70;7.22;;;;;;;17.88;100.00;101600.97;1043964;28;20052;-39
2023/07/09 01:32:07;;;;;;;9.25;7.25;;;;;;;17.93;100.00;101602.91;1044167;28;20612;-39
2023/07/09 01:32:40;;;;;;;8.25;7.38;;;;;;;17.81;100.00;101604.91;1044287;28;20095;-39
2023/07/09 01:33:12;;;;;;;11.30;7.32;;;;;;;17.76;100.00;101605.59;1045106;28;20076;-39
2023/07/09 01:33:44;;;;;;;11.00;8.50;;;;;;;17.90;100.00;101604.22;1046783;28;20162;-39
2023/07/09 01:34:16;;;;;;;10.50;6.97;;;;;;;17.98;100.00;101605.69;1052711;28;20044;-39
2023/07/09 01:34:50;;;;;;;9.05;7.47;;;;;;;17.98;100.00;101605.69;1052410;28;20040;-39
2023/07/09 01:35:22;;;;;;;12.05;7.63;;;;;;;17.98;100.00;101611.06;1051712;28;20064;-46
2023/07/09 01:36:00;;;;;;;8.13;7.25;;;;;;;17.95;100.00;101599.97;1048210;28;20045;-47
2023/07/09 01:36:32;;;;;;;8.70;7.55;;;;;;;17.87;100.00;101598.53;1048728;28;20036;-46
2023/07/09 01:37:06;;;;;;;17.17;7.63;;;;;;;17.83;100.00;101602.78;1044108;28;20045;-47
2023/07/09 01:37:39;;;;;;;10.93;7.88;;;;;;;17.95;100.00;101597.28;1042253;28;20645;-46
2023/07/09 01:38:10;;;;;;;10.25;7.72;;;;;;;17.73;100.00;101599.91;1043957;28;20523;-43
2023/07/09 01:38:43;;;;;;;8.75;7.28;;;;;;;17.76;100.00;101596.72;1045189;28;20116;-45
2023/07/09 01:39:16;;;;;;;10.15;7.22;;;;;;;17.93;100.00;101597.53;1048612;28;20040;-46
2023/07/09 01:39:49;;;;;;;9.57;8.05;;;;;;;17.94;100.00;101593.78;1048626;28;20505;-44
2023/07/09 01:40:23;;;;;;;11.27;7.15;;;;;;;18.00;100.00;101598.16;1048495;28;20040;-46
2023/07/09 01:41:03;;;;;;;8.80;7.30;;;;;;;18.13;100.00;101597.84;1048003;28;20051;-46
2023/07/09 01:41:35;;;;;;;9.40;6.38;;;;;;;18.20;100.00;101594.97;1047684;28;20044;-45
2023/07/09 01:42:08;;;;;;;8.30;6.68;;;;;;;18.25;100.00;101592.31;1048527;28;20052;-45
2023/07/09 01:42:40;;;;;;;9.50;6.90;;;;;;;18.17;100.00;101598.97;1048586;28;20170;-46
2023/07/09 01:43:12;;;;;;;8.82;6.13;;;;;;;18.07;100.00;101593.41;1047718;28;20284;-44
2023/07/09 01:43:44;;;;;;;10.20;6.55;;;;;;;17.94;100.00;101601.03;1048410;28;20051;-45
2023/07/09 01:44:16;;;;;;;11.68;7.63;;;;;;;17.77;100.00;101595.66;1048640;28;20597;-46
2023/07/09 01:44:50;;;;;;;9.82;7.13;;;;;;;17.56;100.00;101592.63;1048015;28;20049;-46
2023/07/09 01:45:21;;;;;;;9.13;6.50;;;;;;;17.60;100.00;101601.03;1048064;28;20119;-45
2023/07/09 01:45:57;;;;;;;10.27;6.97;;;;;;;17.64;100.00;101594.06;1048309;28;20056;-46
2023/07/09 01:46:30;;;;;;;8.95;7.40;;;;;;;17.72;100.00;101596.38;1045923;28;20560;-46
2023/07/09 01:47:04;;;;;;;6.70;6.05;;;;;;;17.74;100.00;101591.56;1048072;28;20045;-44
2023/07/09 01:47:37;;;;;;;11.52;7.43;;;;;;;17.67;100.00;101598.16;1047240;28;20064;-46
2023/07/09 01:48:14;;;;;;;7.03;5.72;;;;;;;17.80;100.00;101593.28;1048594;28;20129;-47
2023/07/09 01:48:46;;;;;;;10.57;6.82;;;;;;;17.78;100.00;101597.28;1044910;28;20045;-46
2023/07/09 01:49:20;;;;;;;7.55;6.72;;;;;;;17.77;100.00;101591.06;1048231;28;20040;-46
2023/07/09 01:49:59;;;;;;;10.60;7.93;;;;;;;17.69;100.00;101596.06;1044119;28;20052;-45
2023/07/09 01:50:32;;;;;;;6.85;6.15;;;;;;;17.38;100.00;101595.53;1044025;28;20376;-45
2023/07/09 01:51:03;;;;;;;11.85;7.45;;;;;;;17.32;100.00;101598.38;1041683;28;20057;-46
2023/07/09 01:51:38;;;;;;;8.43;7.43;;;;;;;17.49;100.00;101601.88;1045740;28;20544;-44
2023/07/09 01:52:10;;;;;;;9.75;6.88;;;;;;;17.48;100.00;101598.38;1048285;28;20045;-45
2023/07/09 01:52:43;;;;;;;10.27;7.80;;;;;;;17.58;100.00;101598.56;1044820;28;20045;-46
2023/07/09 01:53:16;;;;;;;10.20;8.77;;;;;;;17.44;100.00;101593.72;1043985;28;20135;-45
2023/07/09 01:53:47;;;;;;;8.15;7.10;;;;;;;17.52;100.00;101604.91;1040301;28;20037;-39
2023/07/09 01:54:19;;;;;;;10.45;6.47;;;;;;;17.45;100.00;101598.88;1040737;28;20511;-39
2023/07/09 01:54:50;;;;;;;8.23;7.40;;;;;;;17.33;100.00;101598.13;1043547;28;20467;-39
2023/07/09 01:55:22;;;;;;;9.25;7.10;;;;;;;17.49;100.00;101596.50;1048924;28;20119;-45
2023/07/09 01:55:55;;;;;;;11.40;7.10;;;;;;;17.49;100.00;101594.63;1048808;28;20124;-45
2023/07/09 01:56:27;;;;;;;10.80;7.55;;;;;;;17.41;100.00;101600.41;1048152;28;20040;-45
2023/07/09 01:57:22;;;;;;;8.55;7.65;;;;;;;17.55;100.00;101595.56;1044089;28;20164;-45
2023/07/09 01:57:56;;;;;;;9.77;7.00;;;;;;;17.70;100.00;101597.69;1042113;28;20037;-45
2023/07/09 01:58:30;;;;;;;9.32;6.78;;;;;;;17.80;100.00;101601.34;1047894;28;20047;-45
2023/07/09 01:59:02;;;;;;;7.80;7.00;;;;;;;17.83;100.00;101600.06;1043954;28;20049;-45
2023/07/09 01:59:40;;;;;;;8.38;6.53;;;;;;;17.72;100.00;101603.66;1040804;28;20038;-45
2023/07/09 02:00:15;;;;;;;11.50;7.70;;;;;;;17.72;100.00;101599.09;1044254;28;20483;-45
2023/07/09 02:00:47;;;;;;;14.55;6.88;;;;;;;17.90;100.00;101604.22;1042049;28;20511;-46
2023/07/09 02:01:19;;;;;;;10.25;7.45;;;;;;;18.04;100.00;101596.59;1045749;28;20037;-46
2023/07/09 02:01:53;;;;;;;8.40;7.45;;;;;;;18.21;100.00;101600.09;1048237;28;20041;-46
2023/07/09 02:02:25;;;;;;;8.90;7.43;;;;;;;18.22;100.00;101596.34;1045168;28;20053;-46
2023/07/09 02:02:57;;;;;;;9.70;7.28;;;;;;;18.30;100.00;101596.97;1047958;28;20044;-45
2023/07/09 02:03:29;;;;;;;10.05;7.03;;;;;;;18.33;100.00;101599.16;1047772;28;20581;-45
2023/07/09 02:04:01;;;;;;;10.10;7.45;;;;;;;18.46;100.00;101590.72;1048433;28;20047;-46
2023/07/09 02:04:35;;;;;;;10.10;8.20;;;;;;;18.30;100.00;101591.56;1047693;28;20040;-45
2023/07/09 02:05:07;;;;;;;8.88;7.53;;;;;;;17.89;100.00;101599.09;1048095;28;20430;-45
2023/07/09 02:05:39;;;;;;;8.32;7.50;;;;;;;17.89;100.00;101591.00;1043989;28;20864;-47
2023/07/09 02:06:10;;;;;;;9.48;7.55;;;;;;;17.97;100.00;101595.97;1044471;28;20041;-45
2023/07/09 02:06:42;;;;;;;8.63;7.15;;;;;;;17.97;100.00;101598.66;1039401;28;20098;-45
2023/07/09 02:07:14;;;;;;;9.25;7.03;;;;;;;18.01;100.00;101590.91;1040423;28;20045;-44
2023/07/09 02:07:47;;;;;;;10.82;7.20;;;;;;;17.83;100.00;101594.69;1044816;28;20087;-47
2023/07/09 02:08:19;;;;;;;8.10;6.82;;;;;;;17.88;100.00;101597.47;1048004;28;20438;-46
2023/07/09 02:08:50;;;;;;;8.13;7.35;;;;;;;17.75;100.00;101597.78;1048599;28;20044;-46
2023/07/09 02:09:22;;;;;;;11.23;7.32;;;;;;;17.71;100.00;101604.72;1045967;28;20635;-47
2023/07/09 02:09:54;;;;;;;10.60;6.18;;;;;;;17.86;100.00;101604.97;1048007;28;20033;-46
2023/07/09 02:10:26;;;;;;;9.88;7.05;;;;;;;17.93;100.00;101597.53;1048327;28;20134;-46
2023/07/09 02:10:57;;;;;;;9.38;7.55;;;;;;;17.86;100.00;101602.28;1044102;28;20040;-45
2023/07/09 02:11:29;;;;;;;9.15;7.50;;;;;;;17.78;100.00;101599.97;1044323;28;20055;-46
2023/07/09 02:12:02;;;;;;;7.95;6.20;;;;;;;17.83;100.00;101603.59;1044035;28;20098;-46
2023/07/09 02:12:34;;;;;;;8.82;7.10;;;;;;;18.05;100.00;101606.31;1039891;28;20038;-45
2023/07/09 02:13:05;;;;;;;8.88;6.50;;;;;;;17.98;100.00;101596.78;1039407;28;20384;-46
2023/07/09 02:13:37;;;;;;;8.85;6.53;;;;;;;18.15;100.00;101606.50;1040663;28;20050;-45
2023/07/09 02:14:09;;;;;;;9.15;6.78;;;;;;;17.99;100.00;101601.13;1044519;28;20529;-45
2023/07/09 02:14:43;;;;;;;9.85;7.07;;;;;;;17.88;100.00;101602.84;1043649;28;20041;-47
2023/07/09 02:15:15;;;;;;;8.23;7.03;;;;;;;18.05;100.00;101600.94;1044003;28;20091;-45
2023/07/09 02:15:47;;;;;;;8.27;6.97;;;;;;;18.17;100.00;101601.66;1040440;28;20044;-45
2023/07/09 02:16:19;;;;;;;6.47;5.47;;;;;;;18.22;100.00;101601.72;1044677;28;20045;-45
2023/07/09 02:16:52;;;;;;;12.15;8.07;;;;;;;18.12;100.00;101596.22;1046981;28;20045;-45
2023/07/09 02:17:23;;;;;;;17.05;7.15;;;;;;;18.21;100.00;101605.50;1048319;28;20125;-45
2023/07/09 02:17:58;;;;;;;9.73;7.25;;;;;;;17.87;100.00;101595.81;1047962;28;20037;-45
2023/07/09 02:18:30;;;;;;;7.68;6.85;;;;;;;17.82;100.00;101606.53;1048299;28;20050;-45
2023/07/09 02:19:04;;;;;;;9.52;6.85;;;;;;;17.96;100.00;101590.81;1048432;28;20047;-45
2023/07/09 02:19:36;;;;;;;11.13;6.55;;;;;;;17.93;100.00;101602.91;1048532;28;20043;-46
2023/07/09 02:20:09;;;;;;;7.38;6.50;;;;;;;17.98;100.00;101603.00;1048301;28;20528;-45
2023/07/09 02:20:41;;;;;;;11.70;6.57;;;;;;;18.00;100.00;101600.03;1048232;28;20064;-43
2023/07/09 02:21:13;;;;;;;8.00;6.97;;;;;;;17.90;100.00;101603.41;1048707;28;20579;-46
2023/07/09 02:21:44;;;;;;;8.50;6.72;;;;;;;18.05;100.00;101597.41;1047793;28;20044;-45
2023/07/09 02:22:16;;;;;;;15.68;6.55;;;;;;;18.00;100.00;101598.16;1048600;28;20481;-44
2023/07/09 02:22:50;;;;;;;9.65;6.93;;;;;;;17.84;100.00;101597.13;1048575;28;20959;-45
2023/07/09 02:23:26;;;;;;;7.20;6.28;;;;;;;17.66;100.00;101601.91;1048300;28;20137;-46
2023/07/09 02:23:57;;;;;;;10.68;7.00;;;;;;;17.67;100.00;101599.00;1047813;28;20037;-45
2023/07/09 02:24:30;;;;;;;10.80;7.57;;;;;;;17.79;100.00;101604.31;1047479;28;20048;-40
2023/07/09 02:25:03;;;;;;;10.27;7.25;;;;;;;17.93;100.00;101600.22;1045773;28;20080;-39
2023/07/09 02:25:35;;;;;;;8.82;7.47;;;;;;;18.07;100.00;101592.59;1048302;28;20066;-39
2023/07/09 02:26:07;;;;;;;8.90;6.28;;;;;;;17.71;100.00;101594.75;1047406;28;20044;-39
2023/07/09 02:26:40;;;;;;;7.00;6.30;;;;;;;17.86;100.00;101599.59;1047656;28;20044;-39
2023/07/09 02:27:16;;;;;;;9.20;6.90;;;;;;;17.89;100.00;101597.22;1048354;28;20052;-39
2023/07/09 02:27:48;;;;;;;7.35;6.53;;;;;;;17.90;100.00;101598.03;1048265;28;20044;-39
2023/07/09 02:28:22;;;;;;;10.43;6.78;;;;;;;17.83;100.00;101597.38;1044942;28;20506;-39
2023/07/09 02:28:53;;;;;;;12.05;7.25;;;;;;;17.72;100.00;101600.97;1047916;28;20045;-39
2023/07/09 02:29:26;;;;;;;9.60;6.22;;;;;;;17.75;100.00;101595.06;1048238;28;20056;-39
2023/07/09 02:29:58;;;;;;;13.52;6.80;;;;;;;17.88;100.00;101600.97;1047920;28;20049;-39
2023/07/09 02:30:30;;;;;;;8.98;6.68;;;;;;;17.90;100.00;101598.03;1048355;28;20044;-39
2023/07/09 02:31:02;;;;;;;8.48;7.07;;;;;;;17.97;100.00;101598.66;1048201;28;20106;-39
2023/07/09 02:31:35;;;;;;;7.97;6.80;;;;;;;17.81;100.00;101596.81;1047450;28;20079;-39
2023/07/09 02:32:07;;;;;;;8.50;7.55;;;;;;;17.87;100.00;101602.03;1047917;28;20048;-39
2023/07/09 02:32:40;;;;;;;7.50;5.90;;;;;;;17.96;100.00;101597.03;1048401;28;20118;-39
2023/07/09 02:33:11;;;;;;;9.35;6.88;;;;;;;17.99;100.00;101601.94;1049021;28;20044;-39
2023/07/09 02:33:44;;;;;;;8.00;6.53;;;;;;;17.88;100.00;101590.19;1045322;28;20037;-39
2023/07/09 02:34:16;;;;;;;9.43;6.75;;;;;;;17.87;100.00;101603.91;1048098;28;20151;-39
2023/07/09 02:34:48;;;;;;;12.27;7.10;;;;;;;17.88;100.00;101602.84;1047863;28;20724;-39
2023/07/09 02:35:21;;;;;;;9.13;6.80;;;;;;;17.75;100.00;101603.16;1048054;28;20122;-39
2023/07/09 02:35:53;;;;;;;8.48;6.50;;;;;;;17.75;100.00;101605.84;1046782;28;20123;-39